sensor_id;sensor_type;location;lat;lon;timestamp;P1;durP1;ratioP1;P2;durP2;ratioP2
20161;SDS011;51382;53.180;15.414;2023-07-02T00:10:12;28.10;;;5.90;;
20161;SDS011;51382;53.180;15.414;2023-07-02T00:25:24;33.60;;;5.70;;
20161;SDS011;51382;53.180;15.414;2023-07-02T00:40:35;36.00;;;6.90;;
20161;SDS011;51382;53.180;15.414;2023-07-02T00:55:47;14.10;;;4.50;;
20161;SDS011;51382;53.180;15.414;2023-07-02T01:10:59;9.80;;;3.40;;
20161;SDS011;51382;53.180;15.414;2023-07-02T01:26:10;22.90;;;5.20;;
20161;SDS011;51382;53.180;15.414;2023-07-02T01:41:22;12.80;;;3.50;;
20161;SDS011;51382;53.180;15.414;2023-07-02T01:56:39;14.90;;;3.90;;
20161;SDS011;51382;53.180;15.414;2023-07-02T02:11:51;9.90;;;2.80;;
20161;SDS011;51382;53.180;15.414;2023-07-02T02:27:03;20.70;;;4.20;;
20161;SDS011;51382;53.180;15.414;2023-07-02T02:42:14;31.70;;;7.20;;
20161;SDS011;51382;53.180;15.414;2023-07-02T02:57:26;27.20;;;6.30;;
20161;SDS011;51382;53.180;15.414;2023-07-02T03:12:37;21.40;;;4.40;;
20161;SDS011;51382;53.180;15.414;2023-07-02T03:27:48;13.20;;;3.70;;
20161;SDS011;51382;53.180;15.414;2023-07-02T03:42:59;12.40;;;3.50;;
20161;SDS011;51382;53.180;15.414;2023-07-02T03:58:11;23.20;;;4.40;;
20161;SDS011;51382;53.180;15.414;2023-07-02T04:13:22;15.00;;;3.70;;
20161;SDS011;51382;53.180;15.414;2023-07-02T04:28:33;16.70;;;3.60;;
20161;SDS011;51382;53.180;15.414;2023-07-02T04:43:45;15.30;;;4.10;;
20161;SDS011;51382;53.180;15.414;2023-07-02T04:58:56;15.70;;;3.80;;
20161;SDS011;51382;53.180;15.414;2023-07-02T05:14:08;18.00;;;4.20;;
20161;SDS011;51382;53.180;15.414;2023-07-02T05:29:20;16.50;;;4.00;;
20161;SDS011;51382;53.180;15.414;2023-07-02T05:44:31;18.10;;;4.20;;
20161;SDS011;51382;53.180;15.414;2023-07-02T05:59:44;12.50;;;3.60;;
20161;SDS011;51382;53.180;15.414;2023-07-02T06:14:55;30.90;;;6.30;;
20161;SDS011;51382;53.180;15.414;2023-07-02T06:30:08;11.40;;;3.90;;
20161;SDS011;51382;53.180;15.414;2023-07-02T06:45:20;33.00;;;7.80;;
20161;SDS011;51382;53.180;15.414;2023-07-02T07:00:32;26.40;;;9.60;;
20161;SDS011;51382;53.180;15.414;2023-07-02T07:15:45;18.90;;;8.10;;
20161;SDS011;51382;53.180;15.414;2023-07-02T07:30:56;39.30;;;20.60;;
20161;SDS011;51382;53.180;15.414;2023-07-02T07:46:07;79.30;;;43.10;;
20161;SDS011;51382;53.180;15.414;2023-07-02T08:01:19;332.60;;;250.80;;
20161;SDS011;51382;53.180;15.414;2023-07-02T08:16:25;416.70;;;337.60;;
20161;SDS011;51382;53.180;15.414;2023-07-02T08:31:36;69.70;;;41.10;;
20161;SDS011;51382;53.180;15.414;2023-07-02T08:46:49;101.30;;;52.80;;
20161;SDS011;51382;53.180;15.414;2023-07-02T09:02:05;85.50;;;47.60;;
20161;SDS011;51382;53.180;15.414;2023-07-02T09:17:17;175.70;;;108.90;;
20161;SDS011;51382;53.180;15.414;2023-07-02T09:32:28;91.10;;;52.70;;
20161;SDS011;51382;53.180;15.414;2023-07-02T09:47:44;110.60;;;66.00;;
20161;SDS011;51382;53.180;15.414;2023-07-02T10:02:57;101.60;;;61.80;;
20161;SDS011;51382;53.180;15.414;2023-07-02T10:18:10;72.50;;;42.50;;
20161;SDS011;51382;53.180;15.414;2023-07-02T10:33:22;68.80;;;41.80;;
20161;SDS011;51382;53.180;15.414;2023-07-02T10:48:34;85.90;;;51.10;;
20161;SDS011;51382;53.180;15.414;2023-07-02T11:03:45;90.50;;;53.90;;
20161;SDS011;51382;53.180;15.414;2023-07-02T11:19:08;92.90;;;52.90;;
20161;SDS011;51382;53.180;15.414;2023-07-02T11:34:24;83.50;;;44.90;;
20161;SDS011;51382;53.180;15.414;2023-07-02T11:49:36;116.70;;;79.20;;
20161;SDS011;51382;53.180;15.414;2023-07-02T12:04:47;90.20;;;53.80;;
20161;SDS011;51382;53.180;15.414;2023-07-02T12:19:59;92.70;;;55.80;;
20161;SDS011;51382;53.180;15.414;2023-07-02T12:35:11;86.30;;;49.70;;
20161;SDS011;51382;53.180;15.414;2023-07-02T12:50:24;80.20;;;46.60;;
20161;SDS011;51382;53.180;15.414;2023-07-02T13:05:36;82.60;;;48.60;;
20161;SDS011;51382;53.180;15.414;2023-07-02T13:20:47;106.80;;;65.00;;
20161;SDS011;51382;53.180;15.414;2023-07-02T13:35:59;142.00;;;88.80;;
20161;SDS011;51382;53.180;15.414;2023-07-02T13:51:11;127.10;;;76.10;;
20161;SDS011;51382;53.180;15.414;2023-07-02T14:06:22;174.10;;;110.90;;
20161;SDS011;51382;53.180;15.414;2023-07-02T14:21:34;157.70;;;95.40;;
20161;SDS011;51382;53.180;15.414;2023-07-02T14:36:45;87.50;;;51.50;;
20161;SDS011;51382;53.180;15.414;2023-07-02T14:51:56;96.80;;;55.60;;
20161;SDS011;51382;53.180;15.414;2023-07-02T15:07:07;111.40;;;63.50;;
20161;SDS011;51382;53.180;15.414;2023-07-02T15:22:21;117.10;;;73.00;;
20161;SDS011;51382;53.180;15.414;2023-07-02T15:37:32;101.60;;;57.80;;
20161;SDS011;51382;53.180;15.414;2023-07-02T15:52:43;103.60;;;61.70;;
20161;SDS011;51382;53.180;15.414;2023-07-02T16:07:55;101.20;;;62.20;;
20161;SDS011;51382;53.180;15.414;2023-07-02T16:23:08;121.90;;;71.10;;
20161;SDS011;51382;53.180;15.414;2023-07-02T16:38:20;118.30;;;74.90;;
20161;SDS011;51382;53.180;15.414;2023-07-02T16:53:32;108.50;;;65.80;;
20161;SDS011;51382;53.180;15.414;2023-07-02T17:08:44;103.40;;;64.50;;
20161;SDS011;51382;53.180;15.414;2023-07-02T17:23:55;90.30;;;54.40;;
20161;SDS011;51382;53.180;15.414;2023-07-02T17:39:07;101.20;;;60.40;;
20161;SDS011;51382;53.180;15.414;2023-07-02T17:54:19;108.50;;;60.80;;
20161;SDS011;51382;53.180;15.414;2023-07-02T18:09:30;109.90;;;64.20;;
20161;SDS011;51382;53.180;15.414;2023-07-02T18:24:42;116.90;;;69.40;;
20161;SDS011;51382;53.180;15.414;2023-07-02T18:39:53;150.00;;;89.70;;
20161;SDS011;51382;53.180;15.414;2023-07-02T18:55:02;132.10;;;80.70;;
20161;SDS011;51382;53.180;15.414;2023-07-02T19:10:14;132.20;;;77.60;;
20161;SDS011;51382;53.180;15.414;2023-07-02T19:25:26;120.30;;;74.30;;
20161;SDS011;51382;53.180;15.414;2023-07-02T19:40:37;468.40;;;404.90;;
20161;SDS011;51382;53.180;15.414;2023-07-02T19:55:48;408.80;;;326.70;;
20161;SDS011;51382;53.180;15.414;2023-07-02T20:11:00;424.10;;;351.20;;
20161;SDS011;51382;53.180;15.414;2023-07-02T20:26:15;222.70;;;134.60;;
20161;SDS011;51382;53.180;15.414;2023-07-02T20:41:27;39.80;;;12.30;;
20161;SDS011;51382;53.180;15.414;2023-07-02T20:56:38;33.20;;;10.80;;
20161;SDS011;51382;53.180;15.414;2023-07-02T21:11:50;32.70;;;8.80;;
20161;SDS011;51382;53.180;15.414;2023-07-02T21:27:02;37.90;;;7.80;;
20161;SDS011;51382;53.180;15.414;2023-07-02T21:42:13;24.20;;;6.20;;
20161;SDS011;51382;53.180;15.414;2023-07-02T21:57:27;14.40;;;5.60;;
20161;SDS011;51382;53.180;15.414;2023-07-02T22:12:39;16.80;;;5.70;;
20161;SDS011;51382;53.180;15.414;2023-07-02T22:27:50;16.80;;;5.70;;
20161;SDS011;51382;53.180;15.414;2023-07-02T22:43:02;26.70;;;6.70;;
20161;SDS011;51382;53.180;15.414;2023-07-02T22:58:13;18.60;;;6.00;;
20161;SDS011;51382;53.180;15.414;2023-07-02T23:13:25;22.30;;;6.30;;
20161;SDS011;51382;53.180;15.414;2023-07-02T23:28:36;27.00;;;6.40;;
20161;SDS011;51382;53.180;15.414;2023-07-02T23:43:48;17.20;;;5.80;;
20161;SDS011;51382;53.180;15.414;2023-07-02T23:58:59;32.30;;;7.50;;
